createdAt,value
2023-02-14T00:02:38.689Z,253.85
2023-02-14T00:05:45.590Z,258.67
2023-02-14T00:08:54.363Z,267.10
2023-02-14T00:12:01.166Z,267.41
2023-02-14T00:15:20.105Z,261.15
2023-02-14T00:18:50.180Z,267.89
2023-02-14T00:21:56.588Z,266.07
2023-02-14T00:25:03.943Z,268.69
2023-02-14T00:28:09.801Z,268.85
2023-02-14T00:31:16.482Z,274.43
2023-02-14T00:34:25.633Z,269.01
2023-02-14T00:37:32.461Z,277.31
2023-02-14T00:40:38.198Z,273.78
2023-02-14T00:43:44.757Z,270.73
2023-02-14T00:46:50.642Z,261.03
2023-02-14T00:50:03.012Z,258.30
2023-02-14T00:53:08.866Z,261.88
2023-02-14T00:56:16.439Z,253.45
2023-02-14T00:59:22.422Z,248.30
2023-02-14T01:02:29.053Z,243.34
2023-02-14T01:05:37.501Z,238.91
2023-02-14T01:08:44.449Z,242.87
2023-02-14T01:11:50.227Z,249.05
2023-02-14T01:14:57.024Z,252.85
2023-02-14T01:18:03.622Z,239.84
2023-02-14T01:21:20.952Z,234.11
2023-02-14T01:24:27.707Z,233.80
2023-02-14T01:27:34.333Z,233.68
2023-02-14T01:30:40.254Z,220.83
2023-02-14T01:33:51.990Z,212.96
2023-02-14T01:37:00.421Z,211.60
2023-02-14T01:40:08.807Z,216.06
2023-02-14T01:43:21.902Z,225.75
2023-02-14T01:46:30.795Z,208.14
2023-02-14T01:49:44.108Z,207.90
2023-02-14T01:53:00.798Z,215.50
2023-02-14T01:56:15.678Z,220.70
2023-02-14T01:59:29.463Z,225.35
2023-02-14T02:02:35.262Z,231.07
2023-02-14T02:05:51.402Z,231.69
2023-02-14T02:09:15.252Z,229.76
2023-02-14T02:12:22.292Z,229.33
2023-02-14T02:15:34.305Z,218.39
2023-02-14T02:19:11.368Z,231.37
2023-02-14T02:23:10.332Z,226.02
2023-02-14T02:27:11.547Z,225.74
2023-02-14T02:31:10.832Z,228.51
2023-02-14T02:35:15.192Z,221.82
2023-02-14T02:38:50.104Z,215.66
2023-02-14T02:42:17.872Z,215.57
2023-02-14T02:46:05.067Z,223.90
2023-02-14T02:49:38.941Z,210.52
2023-02-14T02:53:06.459Z,208.65
2023-02-14T02:56:37.812Z,216.15
2023-02-14T02:59:48.941Z,217.58
2023-02-14T03:03:13.344Z,212.57
2023-02-14T03:06:19.125Z,201.92
2023-02-14T03:10:00.433Z,196.37
2023-02-14T03:13:34.602Z,189.62
2023-02-14T03:17:07.908Z,193.20
2023-02-14T03:20:26.240Z,192.32
2023-02-14T03:23:41.936Z,193.75
2023-02-14T03:27:00.168Z,197.61
2023-02-14T03:30:21.373Z,199.20
2023-02-14T03:33:42.113Z,194.46
2023-02-14T03:36:59.326Z,188.87
2023-02-14T03:40:14.017Z,185.30
2023-02-14T03:43:33.826Z,188.03
2023-02-14T03:46:48.718Z,187.79
2023-02-14T03:50:05.248Z,189.14
2023-02-14T03:53:16.263Z,188.57
2023-02-14T03:56:35.344Z,195.56
2023-02-14T03:59:45.885Z,191.68
2023-02-14T04:03:02.947Z,200.23
2023-02-14T04:06:09.580Z,203.08
2023-02-14T04:09:16.401Z,199.44
2023-02-14T04:12:35.941Z,201.24
2023-02-14T04:15:46.980Z,192.17
2023-02-14T04:19:04.992Z,196.69
2023-02-14T04:22:11.564Z,193.92
2023-02-14T04:25:17.905Z,194.49
2023-02-14T04:28:24.583Z,199.73
2023-02-14T04:31:33.260Z,202.16
2023-02-14T04:34:41.027Z,206.14
2023-02-14T04:37:46.859Z,207.33
2023-02-14T04:40:54.145Z,220.42
2023-02-14T04:43:59.918Z,221.22
2023-02-14T04:47:10.607Z,218.75
2023-02-14T04:50:17.624Z,214.51
2023-02-14T04:53:24.659Z,208.57
2023-02-14T04:56:30.595Z,204.69
2023-02-14T04:59:37.478Z,204.50
2023-02-14T05:02:45.816Z,203.45
2023-02-14T05:05:52.489Z,214.09
2023-02-14T05:08:58.600Z,209.96
2023-02-14T05:12:05.377Z,210.85
2023-02-14T05:15:12.703Z,208.62
2023-02-14T05:18:21.999Z,209.98
2023-02-14T05:21:28.651Z,217.57
2023-02-14T05:24:35.332Z,224.77
2023-02-14T05:27:41.133Z,217.32
2023-02-14T05:30:50.139Z,208.66
2023-02-14T05:33:58.546Z,206.04
2023-02-14T05:37:05.371Z,212.88
2023-02-14T05:40:14.065Z,220.45
2023-02-14T05:43:20.612Z,222.08
2023-02-14T05:46:26.351Z,218.98
2023-02-14T05:49:35.486Z,215.83
2023-02-14T05:52:41.690Z,221.50
2023-02-14T05:55:48.312Z,238.49
2023-02-14T05:58:54.036Z,242.17
2023-02-14T06:02:00.625Z,227.58
2023-02-14T06:05:11.853Z,217.21
2023-02-14T06:08:18.489Z,213.78
2023-02-14T06:11:24.309Z,210.04
2023-02-14T06:14:30.931Z,208.45
2023-02-14T06:17:36.809Z,208.98
2023-02-14T06:20:46.040Z,210.11
2023-02-14T06:23:51.826Z,215.16
2023-02-14T06:26:58.386Z,216.07
2023-02-14T06:30:04.830Z,232.00
2023-02-14T06:33:11.560Z,240.04
2023-02-14T06:36:20.398Z,251.52
2023-02-14T06:39:27.192Z,246.85
2023-02-14T06:42:32.973Z,250.36
2023-02-14T06:45:39.586Z,237.52
2023-02-14T06:48:45.806Z,232.89
2023-02-14T06:51:55.121Z,221.13
2023-02-14T06:55:00.962Z,236.64
2023-02-14T06:58:07.849Z,229.49
2023-02-14T07:01:13.755Z,204.16
2023-02-14T07:04:20.725Z,195.44
2023-02-14T07:07:29.266Z,211.29
2023-02-14T07:10:36.014Z,215.55
2023-02-14T07:13:41.841Z,225.59
2023-02-14T07:16:48.538Z,204.11
2023-02-14T07:19:54.269Z,197.58
2023-02-14T07:23:04.721Z,219.61
2023-02-14T07:26:10.814Z,269.93
2023-02-14T07:29:18.671Z,334.95
2023-02-14T07:32:25.911Z,391.89
2023-02-14T07:35:33.239Z,322.65
2023-02-14T07:38:41.722Z,318.58
2023-02-14T07:41:48.330Z,298.93
2023-02-14T07:44:57.712Z,249.42
2023-02-14T07:48:04.796Z,223.95
2023-02-14T07:51:11.355Z,221.43
2023-02-14T07:54:21.226Z,228.43
2023-02-14T08:00:48.290Z,244.22
2023-02-14T08:03:54.540Z,220.42
2023-02-14T08:07:01.195Z,210.72
2023-02-14T08:10:12.990Z,213.82
2023-02-14T08:13:19.926Z,195.85
2023-02-14T08:16:25.856Z,192.01
2023-02-14T08:19:33.504Z,198.17
2023-02-14T08:22:39.336Z,207.89
2023-02-14T08:25:48.708Z,205.58
2023-02-14T08:28:54.628Z,215.59
2023-02-14T08:32:01.937Z,204.70
2023-02-14T08:35:08.152Z,196.67
2023-02-14T08:38:15.039Z,200.60
2023-02-14T08:41:23.530Z,199.07
2023-02-14T08:44:30.407Z,197.13
2023-02-14T08:47:38.656Z,209.60
2023-02-14T08:50:45.897Z,203.97
2023-02-14T08:53:57.052Z,185.40
2023-02-14T08:57:06.861Z,178.83
2023-02-14T09:00:15.359Z,172.62
2023-02-14T09:03:22.787Z,193.33
2023-02-14T09:06:29.849Z,292.62
2023-02-14T09:09:37.543Z,279.84
2023-02-14T09:12:46.265Z,189.55
2023-02-14T09:15:55.441Z,165.28
2023-02-14T09:19:01.409Z,178.87
2023-02-14T09:22:11.216Z,235.20
2023-02-14T09:25:16.998Z,197.48
2023-02-14T09:28:26.159Z,338.21
2023-02-14T09:31:31.995Z,209.63
2023-02-14T09:34:39.380Z,162.05
2023-02-14T09:37:45.107Z,157.61
2023-02-14T09:40:54.725Z,134.12
2023-02-14T09:44:10.218Z,134.30
2023-02-14T09:47:31.998Z,132.39
2023-02-14T09:50:48.924Z,134.37
2023-02-14T09:54:07.121Z,188.20
2023-02-14T09:57:30.727Z,132.29
2023-02-14T10:00:51.831Z,128.37
2023-02-14T10:04:28.639Z,126.34
2023-02-14T10:07:53.281Z,130.89
2023-02-14T10:11:11.685Z,132.53
2023-02-14T10:14:26.230Z,134.40
2023-02-14T10:17:47.165Z,135.88
2023-02-14T10:21:00.772Z,145.69
2023-02-14T10:24:21.050Z,145.20
2023-02-14T10:27:39.771Z,140.37
2023-02-14T10:31:01.670Z,142.25
2023-02-14T10:34:25.464Z,143.27
2023-02-14T10:38:01.022Z,139.76
2023-02-14T10:41:30.177Z,146.03
2023-02-14T10:44:57.276Z,135.00
2023-02-14T10:48:23.295Z,141.89
2023-02-14T10:51:46.923Z,149.95
2023-02-14T10:55:00.108Z,153.94
2023-02-14T10:58:13.019Z,132.72
2023-02-14T11:01:22.606Z,147.43
2023-02-14T11:04:29.143Z,137.64
2023-02-14T11:07:39.845Z,145.38
2023-02-14T11:10:46.138Z,135.98
2023-02-14T11:13:53.656Z,138.88
2023-02-14T11:17:01.937Z,135.02
2023-02-14T11:20:30.668Z,153.62
2023-02-14T11:23:44.104Z,120.94
2023-02-14T11:26:55.732Z,111.62
2023-02-14T11:30:03.264Z,136.96
2023-02-14T11:33:15.732Z,148.09
2023-02-14T11:36:21.808Z,132.98
2023-02-14T11:39:37.106Z,128.41
2023-02-14T11:42:51.646Z,114.33
2023-02-14T11:46:19.190Z,108.41
2023-02-14T11:49:35.050Z,124.31
2023-02-14T11:52:54.992Z,112.98
2023-02-14T11:56:03.914Z,108.04
2023-02-14T11:59:23.574Z,105.70
2023-02-14T12:02:43.562Z,99.65
2023-02-14T12:05:57.429Z,104.65
2023-02-14T12:09:16.249Z,108.13
2023-02-14T12:12:29.160Z,111.81
2023-02-14T12:15:40.893Z,103.18
2023-02-14T12:19:02.501Z,101.86
2023-02-14T12:22:10.345Z,99.11
2023-02-14T12:25:25.698Z,88.51
2023-02-14T12:28:46.068Z,102.62
2023-02-14T12:31:53.501Z,107.24
2023-02-14T12:35:16.276Z,111.82
2023-02-14T12:38:44.787Z,119.29
2023-02-14T12:42:07.954Z,117.63
2023-02-14T12:45:30.276Z,116.58
2023-02-14T12:49:03.278Z,117.72
2023-02-14T12:52:41.389Z,117.06
2023-02-14T12:56:06.712Z,110.77
2023-02-14T12:59:35.304Z,112.41
2023-02-14T13:03:44.202Z,111.32
2023-02-14T13:07:00.490Z,110.75
2023-02-14T13:10:30.155Z,106.77
2023-02-14T13:14:04.565Z,94.27
2023-02-14T13:17:27.418Z,144.61
2023-02-14T13:20:52.454Z,128.75
2023-02-14T13:24:14.099Z,121.90
2023-02-14T13:27:30.391Z,118.83
2023-02-14T13:30:42.258Z,126.78
2023-02-14T13:33:55.600Z,132.92
2023-02-14T13:37:12.554Z,125.98
2023-02-14T13:40:26.762Z,185.35
2023-02-14T13:43:53.131Z,1815.04
2023-02-14T13:47:00.054Z,3337.97
2023-02-14T13:50:09.480Z,2159.00
2023-02-14T13:53:41.896Z,3755.00
2023-02-14T13:56:47.768Z,1517.96
2023-02-14T14:00:38.316Z,676.01
2023-02-14T14:04:01.957Z,703.54
2023-02-14T14:07:30.180Z,793.18
2023-02-14T14:10:51.853Z,211.14
2023-02-14T14:14:01.972Z,355.47
2023-02-14T14:17:28.388Z,1057.51
2023-02-14T14:20:52.667Z,1274.97
2023-02-14T14:24:28.284Z,1439.45
2023-02-14T14:27:44.956Z,526.86
2023-02-14T14:30:51.895Z,493.83
2023-02-14T14:34:04.287Z,870.19
2023-02-14T14:37:21.353Z,2840.53
2023-02-14T14:40:32.188Z,1431.80
2023-02-14T14:43:43.856Z,3477.89
2023-02-14T14:46:53.931Z,2606.36
2023-02-14T14:50:10.864Z,2373.64
2023-02-14T14:53:29.406Z,2608.42
2023-02-14T14:56:42.362Z,892.71
2023-02-14T14:59:52.219Z,1359.96
2023-02-14T15:03:09.761Z,2124.29
2023-02-14T15:06:23.137Z,2033.08
2023-02-14T15:09:36.384Z,2353.65
2023-02-14T15:12:56.542Z,1477.64
2023-02-14T15:16:05.778Z,452.48
2023-02-14T15:19:22.567Z,187.38
2023-02-14T15:22:34.000Z,556.77
2023-02-14T15:25:44.759Z,480.03
2023-02-14T15:29:01.306Z,439.41
2023-02-14T15:32:15.439Z,596.13
2023-02-14T15:35:32.104Z,376.87
2023-02-14T15:38:45.206Z,334.85
2023-02-14T15:41:51.154Z,315.81
2023-02-14T15:45:25.604Z,364.89
2023-02-14T15:48:38.016Z,269.54
2023-02-14T15:51:50.533Z,350.57
2023-02-14T15:54:56.454Z,483.06
2023-02-14T15:58:09.894Z,1314.21
2023-02-14T16:01:16.929Z,458.15
2023-02-14T16:04:33.277Z,832.99
2023-02-14T16:07:39.203Z,537.79
2023-02-14T16:10:46.270Z,946.15
2023-02-14T16:13:52.084Z,904.41
2023-02-14T16:17:04.822Z,1865.29
2023-02-14T16:20:45.472Z,3305.29
2023-02-14T16:24:16.018Z,3166.43
2023-02-14T16:27:21.863Z,1892.20
2023-02-14T16:30:28.927Z,1142.83
2023-02-14T16:33:40.111Z,702.38
2023-02-14T16:36:49.656Z,485.85
2023-02-14T16:39:59.567Z,432.13
2023-02-14T16:43:09.507Z,446.76
2023-02-14T16:46:17.709Z,498.19
2023-02-14T16:49:25.591Z,427.66
2023-02-14T16:52:34.486Z,423.55
2023-02-14T16:55:42.701Z,345.23
2023-02-14T16:58:50.380Z,335.95
2023-02-14T17:02:02.872Z,429.62
2023-02-14T17:05:10.131Z,360.80
2023-02-14T17:08:20.720Z,372.53
2023-02-14T17:11:31.080Z,307.12
2023-02-14T17:14:42.729Z,292.27
2023-02-14T17:17:52.204Z,292.03
2023-02-14T17:20:59.435Z,306.40
2023-02-14T17:24:08.819Z,382.58
2023-02-14T17:27:15.564Z,348.96
2023-02-14T17:30:23.343Z,436.29
2023-02-14T17:33:30.693Z,512.09
2023-02-14T17:36:36.887Z,476.66
2023-02-14T17:39:46.268Z,498.93
2023-02-14T17:42:52.206Z,479.32
2023-02-14T17:45:58.880Z,493.37
2023-02-14T17:49:05.480Z,531.79
2023-02-14T17:52:12.322Z,584.38
2023-02-14T17:55:21.041Z,702.09
2023-02-14T17:58:27.754Z,707.12
2023-02-14T18:01:36.375Z,641.36
2023-02-14T18:04:43.205Z,596.72
2023-02-14T18:07:48.960Z,697.09
2023-02-14T18:10:58.977Z,593.93
2023-02-14T18:14:04.980Z,535.26
2023-02-14T18:17:11.848Z,488.27
2023-02-14T18:20:17.687Z,540.15
2023-02-14T18:23:25.003Z,486.23
2023-02-14T18:26:34.683Z,590.04
2023-02-14T18:29:41.608Z,548.52
2023-02-14T18:32:47.995Z,503.07
2023-02-14T18:35:54.564Z,596.62
2023-02-14T18:39:01.185Z,660.89
2023-02-14T18:42:10.468Z,805.33
2023-02-14T18:45:16.405Z,679.99
2023-02-14T18:48:23.146Z,523.73
2023-02-14T18:51:33.502Z,484.83
2023-02-14T18:54:40.539Z,500.91
2023-02-14T18:57:49.052Z,552.02
2023-02-14T19:00:56.679Z,518.49
2023-02-14T19:04:06.206Z,490.90
2023-02-14T19:07:15.715Z,505.02
2023-02-14T19:10:22.070Z,535.01
2023-02-14T19:13:32.483Z,504.18
2023-02-14T19:16:51.263Z,524.00
2023-02-14T19:20:00.097Z,504.57
2023-02-14T19:23:06.668Z,469.92
2023-02-14T19:26:15.169Z,484.44
2023-02-14T19:29:27.455Z,513.33
2023-02-14T19:32:34.105Z,532.88
2023-02-14T19:35:40.393Z,521.99
2023-02-14T19:38:51.351Z,509.74
2023-02-14T19:41:57.151Z,536.51
2023-02-14T19:45:09.950Z,534.48
2023-02-14T19:48:15.928Z,527.37
2023-02-14T19:51:29.073Z,515.47
2023-02-14T19:54:34.995Z,517.04
2023-02-14T19:57:42.493Z,517.76
2023-02-14T20:00:59.629Z,523.65
2023-02-14T20:04:10.332Z,523.24
2023-02-14T20:07:16.893Z,524.20
2023-02-14T20:10:24.003Z,517.38
2023-02-14T20:13:31.384Z,553.93
2023-02-14T20:16:41.688Z,577.35
2023-02-14T20:19:47.585Z,568.90
2023-02-14T20:22:54.139Z,552.15
2023-02-14T20:26:02.923Z,514.39
2023-02-14T20:29:12.828Z,509.55
2023-02-14T20:32:22.018Z,544.01
2023-02-14T20:35:31.774Z,581.53
2023-02-14T20:38:38.541Z,597.52
2023-02-14T20:41:50.210Z,600.47
2023-02-14T20:44:56.200Z,560.91
2023-02-14T20:48:07.262Z,551.74
2023-02-14T20:51:14.994Z,549.36
2023-02-14T20:54:24.723Z,554.13
2023-02-14T20:57:32.420Z,545.15
2023-02-14T21:00:39.470Z,547.73
2023-02-14T21:03:51.228Z,579.40
2023-02-14T21:07:00.399Z,558.74
2023-02-14T21:10:07.417Z,538.69
2023-02-14T21:13:14.155Z,526.27
2023-02-14T21:16:22.850Z,536.52
2023-02-14T21:19:31.996Z,542.09
2023-02-14T21:22:37.942Z,582.80
2023-02-14T21:25:45.084Z,602.35
2023-02-14T21:29:01.141Z,570.89
2023-02-14T21:32:10.418Z,597.60
2023-02-14T21:35:19.345Z,683.27
2023-02-14T21:38:26.507Z,666.80
2023-02-14T21:41:34.696Z,694.01
2023-02-14T21:44:54.366Z,678.37
2023-02-14T21:48:12.540Z,750.36
2023-02-14T21:51:23.115Z,817.47
2023-02-14T21:54:29.037Z,729.58
2023-02-14T21:57:35.878Z,788.13
2023-02-14T22:00:48.260Z,895.13
2023-02-14T22:03:57.028Z,996.31
2023-02-14T22:07:05.564Z,870.16
2023-02-14T22:10:13.972Z,791.12
2023-02-14T22:13:19.775Z,716.27
2023-02-14T22:16:28.546Z,637.00
2023-02-14T22:19:36.930Z,656.98
2023-02-14T22:22:47.363Z,712.38
2023-02-14T22:25:57.525Z,899.88
2023-02-14T22:29:06.137Z,760.16
2023-02-14T22:32:12.054Z,668.60
2023-02-14T22:35:19.166Z,643.69
2023-02-14T22:38:28.258Z,604.60
2023-02-14T22:41:37.880Z,588.49
2023-02-14T22:44:43.908Z,565.51
2023-02-14T22:47:50.533Z,586.82
2023-02-14T22:50:56.266Z,581.52
2023-02-14T22:54:08.631Z,593.11
2023-02-14T22:57:17.032Z,254.50
2023-02-14T23:00:25.051Z,412.36
2023-02-14T23:03:31.099Z,397.24
2023-02-14T23:06:40.286Z,399.19
2023-02-14T23:09:48.672Z,396.00
2023-02-14T23:13:07.816Z,425.62
2023-02-14T23:16:25.962Z,430.60
2023-02-14T23:19:49.327Z,424.47
2023-02-14T23:22:54.999Z,514.47
2023-02-14T23:26:04.334Z,591.58
2023-02-14T23:29:10.108Z,636.72
2023-02-14T23:32:17.619Z,580.61
2023-02-14T23:35:23.399Z,572.14
2023-02-14T23:38:29.974Z,516.10
2023-02-14T23:41:50.373Z,665.95
2023-02-14T23:45:17.004Z,416.95
2023-02-14T23:48:22.798Z,584.09
2023-02-14T23:51:29.367Z,615.41
2023-02-14T23:54:35.842Z,687.34
2023-02-14T23:57:44.959Z,638.45
